sensor_id;sensor_type;location;lat;lon;timestamp;temperature;humidity
34768;DHT22;21755;43.608;1.236;2024-03-02T00:00:26;9.60;1.00
34768;DHT22;21755;43.608;1.236;2024-03-02T00:02:52;9.60;1.00
34768;DHT22;21755;43.608;1.236;2024-03-02T00:05:20;9.60;1.00
34768;DHT22;21755;43.608;1.236;2024-03-02T00:07:53;9.60;1.00
34768;DHT22;21755;43.608;1.236;2024-03-02T00:10:25;9.60;1.00
34768;DHT22;21755;43.608;1.236;2024-03-02T00:12:56;9.60;1.00
34768;DHT22;21755;43.608;1.236;2024-03-02T00:17:59;9.60;1.00
34768;DHT22;21755;43.608;1.236;2024-03-02T00:20:25;9.60;1.00
34768;DHT22;21755;43.608;1.236;2024-03-02T00:23:04;9.60;1.00
34768;DHT22;21755;43.608;1.236;2024-03-02T00:25:40;9.60;1.00
34768;DHT22;21755;43.608;1.236;2024-03-02T00:28:24;9.50;1.00
34768;DHT22;21755;43.608;1.236;2024-03-02T00:30:58;9.60;1.00
34768;DHT22;21755;43.608;1.236;2024-03-02T00:33:34;9.50;1.00
34768;DHT22;21755;43.608;1.236;2024-03-02T00:36:00;9.50;1.00
34768;DHT22;21755;43.608;1.236;2024-03-02T00:38:27;9.50;1.00
34768;DHT22;21755;43.608;1.236;2024-03-02T00:40:54;9.50;1.00
34768;DHT22;21755;43.608;1.236;2024-03-02T00:43:42;9.50;1.00
34768;DHT22;21755;43.608;1.236;2024-03-02T00:46:13;9.60;1.00
34768;DHT22;21755;43.608;1.236;2024-03-02T00:48:49;9.50;1.00
34768;DHT22;21755;43.608;1.236;2024-03-02T00:51:16;9.50;1.00
34768;DHT22;21755;43.608;1.236;2024-03-02T00:53:42;9.60;1.00
34768;DHT22;21755;43.608;1.236;2024-03-02T00:56:11;9.50;1.00
34768;DHT22;21755;43.608;1.236;2024-03-02T00:58:38;9.50;1.00
34768;DHT22;21755;43.608;1.236;2024-03-02T01:01:04;9.50;1.00
34768;DHT22;21755;43.608;1.236;2024-03-02T01:03:31;9.60;1.00
34768;DHT22;21755;43.608;1.236;2024-03-02T01:05:58;9.60;1.00
34768;DHT22;21755;43.608;1.236;2024-03-02T01:08:24;9.60;1.00
34768;DHT22;21755;43.608;1.236;2024-03-02T01:10:50;9.60;1.00
34768;DHT22;21755;43.608;1.236;2024-03-02T01:13:16;9.60;1.00
34768;DHT22;21755;43.608;1.236;2024-03-02T01:15:42;9.60;1.00
34768;DHT22;21755;43.608;1.236;2024-03-02T01:18:07;9.60;1.00
34768;DHT22;21755;43.608;1.236;2024-03-02T01:20:34;9.60;1.00
34768;DHT22;21755;43.608;1.236;2024-03-02T01:23:00;9.60;1.00
34768;DHT22;21755;43.608;1.236;2024-03-02T01:25:25;9.60;1.00
34768;DHT22;21755;43.608;1.236;2024-03-02T01:27:51;9.60;1.00
34768;DHT22;21755;43.608;1.236;2024-03-02T01:30:17;9.60;1.00
34768;DHT22;21755;43.608;1.236;2024-03-02T01:32:43;9.60;1.00
34768;DHT22;21755;43.608;1.236;2024-03-02T01:35:09;9.60;1.00
34768;DHT22;21755;43.608;1.236;2024-03-02T01:37:35;9.60;1.00
34768;DHT22;21755;43.608;1.236;2024-03-02T01:40:01;9.60;1.00
34768;DHT22;21755;43.608;1.236;2024-03-02T01:42:28;9.60;1.00
34768;DHT22;21755;43.608;1.236;2024-03-02T01:44:54;9.60;1.00
34768;DHT22;21755;43.608;1.236;2024-03-02T01:47:20;9.70;1.00
34768;DHT22;21755;43.608;1.236;2024-03-02T01:49:46;9.70;1.00
34768;DHT22;21755;43.608;1.236;2024-03-02T01:52:12;9.70;1.00
34768;DHT22;21755;43.608;1.236;2024-03-02T01:54:38;9.70;1.00
34768;DHT22;21755;43.608;1.236;2024-03-02T01:57:04;9.70;1.00
34768;DHT22;21755;43.608;1.236;2024-03-02T01:59:30;9.70;1.00
34768;DHT22;21755;43.608;1.236;2024-03-02T02:01:55;9.70;1.00
34768;DHT22;21755;43.608;1.236;2024-03-02T02:04:21;9.70;1.00
34768;DHT22;21755;43.608;1.236;2024-03-02T02:06:53;9.70;1.00
34768;DHT22;21755;43.608;1.236;2024-03-02T02:09:19;9.70;1.00
34768;DHT22;21755;43.608;1.236;2024-03-02T02:11:45;9.80;1.00
34768;DHT22;21755;43.608;1.236;2024-03-02T02:14:11;9.80;1.00
34768;DHT22;21755;43.608;1.236;2024-03-02T02:16:37;9.80;1.00
34768;DHT22;21755;43.608;1.236;2024-03-02T02:19:02;9.80;1.00
34768;DHT22;21755;43.608;1.236;2024-03-02T02:21:28;9.80;1.00
34768;DHT22;21755;43.608;1.236;2024-03-02T02:23:54;9.80;1.00
34768;DHT22;21755;43.608;1.236;2024-03-02T02:26:20;9.80;1.00
34768;DHT22;21755;43.608;1.236;2024-03-02T02:28:46;9.80;1.00
34768;DHT22;21755;43.608;1.236;2024-03-02T02:31:14;9.80;1.00
34768;DHT22;21755;43.608;1.236;2024-03-02T02:33:41;9.80;1.00
34768;DHT22;21755;43.608;1.236;2024-03-02T02:36:07;9.80;1.00
34768;DHT22;21755;43.608;1.236;2024-03-02T02:38:40;9.80;1.00
34768;DHT22;21755;43.608;1.236;2024-03-02T02:41:08;9.80;1.00
34768;DHT22;21755;43.608;1.236;2024-03-02T02:43:34;9.80;1.00
34768;DHT22;21755;43.608;1.236;2024-03-02T02:46:00;9.70;1.00
34768;DHT22;21755;43.608;1.236;2024-03-02T02:48:26;9.70;1.00
34768;DHT22;21755;43.608;1.236;2024-03-02T02:50:52;9.70;1.00
34768;DHT22;21755;43.608;1.236;2024-03-02T02:53:18;9.70;1.00
34768;DHT22;21755;43.608;1.236;2024-03-02T02:55:43;9.70;1.00
34768;DHT22;21755;43.608;1.236;2024-03-02T02:58:10;9.70;1.00
34768;DHT22;21755;43.608;1.236;2024-03-02T03:00:35;9.70;1.00
34768;DHT22;21755;43.608;1.236;2024-03-02T03:03:02;9.70;1.00
34768;DHT22;21755;43.608;1.236;2024-03-02T03:05:28;9.70;1.00
34768;DHT22;21755;43.608;1.236;2024-03-02T03:07:54;9.70;1.00
34768;DHT22;21755;43.608;1.236;2024-03-02T03:10:20;9.70;1.00
34768;DHT22;21755;43.608;1.236;2024-03-02T03:12:47;9.70;1.00
34768;DHT22;21755;43.608;1.236;2024-03-02T03:15:14;9.70;1.00
34768;DHT22;21755;43.608;1.236;2024-03-02T03:17:41;9.60;1.00
34768;DHT22;21755;43.608;1.236;2024-03-02T03:20:08;9.60;1.00
34768;DHT22;21755;43.608;1.236;2024-03-02T03:22:37;9.60;1.00
34768;DHT22;21755;43.608;1.236;2024-03-02T03:25:03;9.60;1.00
34768;DHT22;21755;43.608;1.236;2024-03-02T03:27:29;9.60;1.00
34768;DHT22;21755;43.608;1.236;2024-03-02T03:29:55;9.60;1.00
34768;DHT22;21755;43.608;1.236;2024-03-02T03:32:21;9.60;1.00
34768;DHT22;21755;43.608;1.236;2024-03-02T03:34:47;9.60;1.00
34768;DHT22;21755;43.608;1.236;2024-03-02T03:37:14;9.60;1.00
34768;DHT22;21755;43.608;1.236;2024-03-02T03:39:41;9.60;1.00
34768;DHT22;21755;43.608;1.236;2024-03-02T03:42:07;9.60;1.00
34768;DHT22;21755;43.608;1.236;2024-03-02T03:44:33;9.50;1.00
34768;DHT22;21755;43.608;1.236;2024-03-02T03:46:59;9.50;1.00
34768;DHT22;21755;43.608;1.236;2024-03-02T03:49:27;9.50;1.00
34768;DHT22;21755;43.608;1.236;2024-03-02T03:51:53;9.50;1.00
34768;DHT22;21755;43.608;1.236;2024-03-02T03:54:19;9.50;1.00
34768;DHT22;21755;43.608;1.236;2024-03-02T03:56:45;9.50;1.00
34768;DHT22;21755;43.608;1.236;2024-03-02T03:59:11;9.50;1.00
34768;DHT22;21755;43.608;1.236;2024-03-02T04:01:37;9.50;1.00
34768;DHT22;21755;43.608;1.236;2024-03-02T04:04:03;9.50;1.00
34768;DHT22;21755;43.608;1.236;2024-03-02T04:06:29;9.50;1.00
34768;DHT22;21755;43.608;1.236;2024-03-02T04:08:55;9.50;1.00
34768;DHT22;21755;43.608;1.236;2024-03-02T04:11:21;9.40;1.00
34768;DHT22;21755;43.608;1.236;2024-03-02T04:13:47;9.50;1.00
34768;DHT22;21755;43.608;1.236;2024-03-02T04:16:13;9.50;1.00
34768;DHT22;21755;43.608;1.236;2024-03-02T04:18:39;9.40;1.00
34768;DHT22;21755;43.608;1.236;2024-03-02T04:21:05;9.40;1.00
34768;DHT22;21755;43.608;1.236;2024-03-02T04:23:31;9.40;1.00
34768;DHT22;21755;43.608;1.236;2024-03-02T04:25:57;9.40;1.00
34768;DHT22;21755;43.608;1.236;2024-03-02T04:28:22;9.40;1.00
34768;DHT22;21755;43.608;1.236;2024-03-02T04:30:48;9.40;1.00
34768;DHT22;21755;43.608;1.236;2024-03-02T04:33:14;9.40;1.00
34768;DHT22;21755;43.608;1.236;2024-03-02T04:35:40;9.40;1.00
34768;DHT22;21755;43.608;1.236;2024-03-02T04:38:06;9.40;1.00
34768;DHT22;21755;43.608;1.236;2024-03-02T04:40:32;9.40;1.00
34768;DHT22;21755;43.608;1.236;2024-03-02T04:42:57;9.40;1.00
34768;DHT22;21755;43.608;1.236;2024-03-02T04:45:24;9.40;1.00
34768;DHT22;21755;43.608;1.236;2024-03-02T04:47:50;9.40;1.00
34768;DHT22;21755;43.608;1.236;2024-03-02T04:50:16;9.30;1.00
34768;DHT22;21755;43.608;1.236;2024-03-02T04:52:42;9.30;1.00
34768;DHT22;21755;43.608;1.236;2024-03-02T04:55:08;9.30;1.00
34768;DHT22;21755;43.608;1.236;2024-03-02T04:57:43;9.30;1.00
34768;DHT22;21755;43.608;1.236;2024-03-02T05:00:10;9.30;1.00
34768;DHT22;21755;43.608;1.236;2024-03-02T05:02:36;9.30;1.00
34768;DHT22;21755;43.608;1.236;2024-03-02T05:05:02;9.30;1.00
34768;DHT22;21755;43.608;1.236;2024-03-02T05:07:28;9.30;1.00
34768;DHT22;21755;43.608;1.236;2024-03-02T05:09:54;9.30;1.00
34768;DHT22;21755;43.608;1.236;2024-03-02T05:12:20;9.30;1.00
34768;DHT22;21755;43.608;1.236;2024-03-02T05:15:14;9.20;1.00
34768;DHT22;21755;43.608;1.236;2024-03-02T05:17:41;9.20;1.00
34768;DHT22;21755;43.608;1.236;2024-03-02T05:20:10;9.20;1.00
34768;DHT22;21755;43.608;1.236;2024-03-02T05:22:37;9.20;1.00
34768;DHT22;21755;43.608;1.236;2024-03-02T05:25:04;9.20;1.00
34768;DHT22;21755;43.608;1.236;2024-03-02T05:27:30;9.20;1.00
34768;DHT22;21755;43.608;1.236;2024-03-02T05:29:58;9.20;1.00
34768;DHT22;21755;43.608;1.236;2024-03-02T05:32:24;9.20;1.00
34768;DHT22;21755;43.608;1.236;2024-03-02T05:34:50;9.20;1.00
34768;DHT22;21755;43.608;1.236;2024-03-02T05:37:17;9.20;1.00
34768;DHT22;21755;43.608;1.236;2024-03-02T05:39:43;9.20;1.00
34768;DHT22;21755;43.608;1.236;2024-03-02T05:42:09;9.10;1.00
34768;DHT22;21755;43.608;1.236;2024-03-02T05:44:36;9.10;1.00
34768;DHT22;21755;43.608;1.236;2024-03-02T05:47:02;9.10;1.00
34768;DHT22;21755;43.608;1.236;2024-03-02T05:49:29;9.10;1.00
34768;DHT22;21755;43.608;1.236;2024-03-02T05:51:55;9.10;1.00
34768;DHT22;21755;43.608;1.236;2024-03-02T05:54:21;9.10;1.00
34768;DHT22;21755;43.608;1.236;2024-03-02T05:56:47;9.10;1.00
34768;DHT22;21755;43.608;1.236;2024-03-02T05:59:13;9.10;1.00
34768;DHT22;21755;43.608;1.236;2024-03-02T06:01:43;9.10;1.00
34768;DHT22;21755;43.608;1.236;2024-03-02T06:04:12;9.10;1.00
34768;DHT22;21755;43.608;1.236;2024-03-02T06:06:39;9.10;1.00
34768;DHT22;21755;43.608;1.236;2024-03-02T06:09:06;9.00;1.00
34768;DHT22;21755;43.608;1.236;2024-03-02T06:11:35;9.00;1.00
34768;DHT22;21755;43.608;1.236;2024-03-02T06:14:02;9.00;1.00
34768;DHT22;21755;43.608;1.236;2024-03-02T06:16:29;9.00;1.00
34768;DHT22;21755;43.608;1.236;2024-03-02T06:18:55;9.00;1.00
34768;DHT22;21755;43.608;1.236;2024-03-02T06:21:24;9.00;1.00
34768;DHT22;21755;43.608;1.236;2024-03-02T06:23:50;9.00;1.00
34768;DHT22;21755;43.608;1.236;2024-03-02T06:26:15;9.00;1.00
34768;DHT22;21755;43.608;1.236;2024-03-02T06:28:41;9.00;1.00
34768;DHT22;21755;43.608;1.236;2024-03-02T06:31:08;9.00;1.00
34768;DHT22;21755;43.608;1.236;2024-03-02T06:33:34;9.00;1.00
34768;DHT22;21755;43.608;1.236;2024-03-02T06:36:00;8.90;1.00
34768;DHT22;21755;43.608;1.236;2024-03-02T06:38:26;8.90;1.00
34768;DHT22;21755;43.608;1.236;2024-03-02T06:40:52;8.90;1.00
34768;DHT22;21755;43.608;1.236;2024-03-02T06:43:18;8.90;1.00
34768;DHT22;21755;43.608;1.236;2024-03-02T06:45:51;8.90;1.00
34768;DHT22;21755;43.608;1.236;2024-03-02T06:48:18;8.90;1.00
34768;DHT22;21755;43.608;1.236;2024-03-02T06:50:49;8.90;1.00
34768;DHT22;21755;43.608;1.236;2024-03-02T06:53:15;8.90;1.00
34768;DHT22;21755;43.608;1.236;2024-03-02T06:55:46;8.90;1.00
34768;DHT22;21755;43.608;1.236;2024-03-02T06:58:13;8.90;1.00
34768;DHT22;21755;43.608;1.236;2024-03-02T07:00:40;8.90;1.00
34768;DHT22;21755;43.608;1.236;2024-03-02T07:03:06;8.80;1.00
34768;DHT22;21755;43.608;1.236;2024-03-02T07:05:32;8.80;1.00
34768;DHT22;21755;43.608;1.236;2024-03-02T07:07:58;8.80;1.00
34768;DHT22;21755;43.608;1.236;2024-03-02T07:10:24;8.90;1.00
34768;DHT22;21755;43.608;1.236;2024-03-02T07:12:50;8.90;1.00
34768;DHT22;21755;43.608;1.236;2024-03-02T07:15:16;8.90;1.00
34768;DHT22;21755;43.608;1.236;2024-03-02T07:17:50;8.90;1.00
34768;DHT22;21755;43.608;1.236;2024-03-02T07:20:16;8.90;1.00
34768;DHT22;21755;43.608;1.236;2024-03-02T07:22:42;8.90;1.00
34768;DHT22;21755;43.608;1.236;2024-03-02T07:25:08;8.90;1.00
34768;DHT22;21755;43.608;1.236;2024-03-02T07:27:34;8.90;1.00
34768;DHT22;21755;43.608;1.236;2024-03-02T07:30:02;8.90;1.00
34768;DHT22;21755;43.608;1.236;2024-03-02T07:32:28;8.90;1.00
34768;DHT22;21755;43.608;1.236;2024-03-02T07:34:54;8.90;1.00
34768;DHT22;21755;43.608;1.236;2024-03-02T07:37:22;8.90;1.00
34768;DHT22;21755;43.608;1.236;2024-03-02T07:39:48;8.90;1.00
34768;DHT22;21755;43.608;1.236;2024-03-02T07:42:14;8.90;1.00
34768;DHT22;21755;43.608;1.236;2024-03-02T07:44:40;8.90;1.00
34768;DHT22;21755;43.608;1.236;2024-03-02T07:47:06;8.90;1.00
34768;DHT22;21755;43.608;1.236;2024-03-02T07:49:32;8.90;1.00
34768;DHT22;21755;43.608;1.236;2024-03-02T07:51:58;8.90;1.00
34768;DHT22;21755;43.608;1.236;2024-03-02T07:54:24;8.90;1.00
34768;DHT22;21755;43.608;1.236;2024-03-02T07:56:50;8.90;1.00
34768;DHT22;21755;43.608;1.236;2024-03-02T07:59:16;9.00;1.00
34768;DHT22;21755;43.608;1.236;2024-03-02T08:01:42;9.00;1.00
34768;DHT22;21755;43.608;1.236;2024-03-02T08:04:08;9.00;1.00
34768;DHT22;21755;43.608;1.236;2024-03-02T08:06:34;9.00;1.00
34768;DHT22;21755;43.608;1.236;2024-03-02T08:09:01;9.00;1.00
34768;DHT22;21755;43.608;1.236;2024-03-02T08:11:27;9.00;1.00
34768;DHT22;21755;43.608;1.236;2024-03-02T08:13:54;9.00;1.00
34768;DHT22;21755;43.608;1.236;2024-03-02T08:16:22;9.10;1.00
34768;DHT22;21755;43.608;1.236;2024-03-02T08:18:49;9.10;1.00
34768;DHT22;21755;43.608;1.236;2024-03-02T08:21:15;9.10;1.00
34768;DHT22;21755;43.608;1.236;2024-03-02T08:23:42;9.10;1.00
34768;DHT22;21755;43.608;1.236;2024-03-02T08:26:09;9.20;1.00
34768;DHT22;21755;43.608;1.236;2024-03-02T08:28:35;9.10;1.00
34768;DHT22;21755;43.608;1.236;2024-03-02T08:31:03;9.20;1.00
34768;DHT22;21755;43.608;1.236;2024-03-02T08:33:29;9.20;1.00
34768;DHT22;21755;43.608;1.236;2024-03-02T08:35:55;9.20;1.00
34768;DHT22;21755;43.608;1.236;2024-03-02T08:38:21;9.20;1.00
34768;DHT22;21755;43.608;1.236;2024-03-02T08:40:48;9.20;1.00
34768;DHT22;21755;43.608;1.236;2024-03-02T08:43:14;9.30;1.00
34768;DHT22;21755;43.608;1.236;2024-03-02T08:45:41;9.30;1.00
34768;DHT22;21755;43.608;1.236;2024-03-02T08:48:08;9.30;1.00
34768;DHT22;21755;43.608;1.236;2024-03-02T08:50:34;9.30;1.00
34768;DHT22;21755;43.608;1.236;2024-03-02T08:53:01;9.30;1.00
34768;DHT22;21755;43.608;1.236;2024-03-02T08:55:26;9.40;1.00
34768;DHT22;21755;43.608;1.236;2024-03-02T08:57:53;9.40;1.00
34768;DHT22;21755;43.608;1.236;2024-03-02T09:00:19;9.40;1.00
34768;DHT22;21755;43.608;1.236;2024-03-02T09:02:45;9.40;1.00
34768;DHT22;21755;43.608;1.236;2024-03-02T09:05:11;9.40;1.00
34768;DHT22;21755;43.608;1.236;2024-03-02T09:07:37;9.40;1.00
34768;DHT22;21755;43.608;1.236;2024-03-02T09:10:07;9.40;1.00
34768;DHT22;21755;43.608;1.236;2024-03-02T09:12:34;9.40;1.00
34768;DHT22;21755;43.608;1.236;2024-03-02T09:15:01;9.40;1.00
34768;DHT22;21755;43.608;1.236;2024-03-02T09:17:28;9.50;1.00
34768;DHT22;21755;43.608;1.236;2024-03-02T09:19:54;9.50;1.00
34768;DHT22;21755;43.608;1.236;2024-03-02T09:22:20;9.50;1.00
34768;DHT22;21755;43.608;1.236;2024-03-02T09:24:46;9.50;1.00
34768;DHT22;21755;43.608;1.236;2024-03-02T09:27:12;9.50;1.00
34768;DHT22;21755;43.608;1.236;2024-03-02T09:29:38;9.60;1.00
34768;DHT22;21755;43.608;1.236;2024-03-02T09:32:05;9.60;1.00
34768;DHT22;21755;43.608;1.236;2024-03-02T09:34:31;9.60;1.00
34768;DHT22;21755;43.608;1.236;2024-03-02T09:36:58;9.60;1.00
34768;DHT22;21755;43.608;1.236;2024-03-02T09:39:24;9.60;1.00
34768;DHT22;21755;43.608;1.236;2024-03-02T09:41:51;9.60;1.00
34768;DHT22;21755;43.608;1.236;2024-03-02T09:44:17;9.70;1.00
34768;DHT22;21755;43.608;1.236;2024-03-02T09:46:43;9.70;1.00
34768;DHT22;21755;43.608;1.236;2024-03-02T09:49:10;9.70;1.00
34768;DHT22;21755;43.608;1.236;2024-03-02T09:51:40;9.70;1.00
34768;DHT22;21755;43.608;1.236;2024-03-02T09:54:09;9.70;1.00
34768;DHT22;21755;43.608;1.236;2024-03-02T09:56:35;9.70;1.00
34768;DHT22;21755;43.608;1.236;2024-03-02T09:59:01;9.70;1.00
34768;DHT22;21755;43.608;1.236;2024-03-02T10:01:27;9.80;1.00
34768;DHT22;21755;43.608;1.236;2024-03-02T10:03:53;9.80;1.00
34768;DHT22;21755;43.608;1.236;2024-03-02T10:06:23;9.80;1.00
34768;DHT22;21755;43.608;1.236;2024-03-02T10:08:50;9.80;1.00
34768;DHT22;21755;43.608;1.236;2024-03-02T10:11:34;9.80;1.00
34768;DHT22;21755;43.608;1.236;2024-03-02T10:14:12;9.80;1.00
34768;DHT22;21755;43.608;1.236;2024-03-02T10:16:40;9.80;1.00
34768;DHT22;21755;43.608;1.236;2024-03-02T10:19:20;9.80;1.00
34768;DHT22;21755;43.608;1.236;2024-03-02T10:21:50;9.90;1.00
34768;DHT22;21755;43.608;1.236;2024-03-02T10:24:25;9.90;1.00
34768;DHT22;21755;43.608;1.236;2024-03-02T10:26:51;9.90;1.00
34768;DHT22;21755;43.608;1.236;2024-03-02T10:29:18;9.90;1.00
34768;DHT22;21755;43.608;1.236;2024-03-02T10:31:45;9.90;1.00
34768;DHT22;21755;43.608;1.236;2024-03-02T10:34:12;9.90;1.00
34768;DHT22;21755;43.608;1.236;2024-03-02T10:36:41;9.90;1.00
34768;DHT22;21755;43.608;1.236;2024-03-02T10:39:08;9.90;1.00
34768;DHT22;21755;43.608;1.236;2024-03-02T10:41:36;10.00;1.00
34768;DHT22;21755;43.608;1.236;2024-03-02T10:44:07;10.00;1.00
34768;DHT22;21755;43.608;1.236;2024-03-02T10:46:35;10.00;1.00
34768;DHT22;21755;43.608;1.236;2024-03-02T10:49:02;10.00;1.00
34768;DHT22;21755;43.608;1.236;2024-03-02T10:51:31;10.00;1.00
34768;DHT22;21755;43.608;1.236;2024-03-02T10:54:01;10.00;1.00
34768;DHT22;21755;43.608;1.236;2024-03-02T10:56:47;10.10;1.00
34768;DHT22;21755;43.608;1.236;2024-03-02T10:59:28;10.10;1.00
34768;DHT22;21755;43.608;1.236;2024-03-02T11:02:00;10.10;1.00
34768;DHT22;21755;43.608;1.236;2024-03-02T11:04:27;10.10;1.00
34768;DHT22;21755;43.608;1.236;2024-03-02T11:07:08;10.10;1.00
34768;DHT22;21755;43.608;1.236;2024-03-02T11:09:39;10.10;1.00
34768;DHT22;21755;43.608;1.236;2024-03-02T11:12:47;10.20;1.00
34768;DHT22;21755;43.608;1.236;2024-03-02T11:15:17;10.20;1.00
34768;DHT22;21755;43.608;1.236;2024-03-02T11:17:46;10.20;1.00
34768;DHT22;21755;43.608;1.236;2024-03-02T11:20:13;10.20;1.00
34768;DHT22;21755;43.608;1.236;2024-03-02T11:22:40;10.20;1.00
34768;DHT22;21755;43.608;1.236;2024-03-02T11:25:23;10.30;1.00
34768;DHT22;21755;43.608;1.236;2024-03-02T11:27:58;10.30;1.00
34768;DHT22;21755;43.608;1.236;2024-03-02T11:33:03;10.40;1.00
34768;DHT22;21755;43.608;1.236;2024-03-02T11:35:37;10.40;1.00
34768;DHT22;21755;43.608;1.236;2024-03-02T11:38:03;10.40;1.00
34768;DHT22;21755;43.608;1.236;2024-03-02T11:40:30;10.40;1.00
34768;DHT22;21755;43.608;1.236;2024-03-02T11:42:57;10.40;1.00
34768;DHT22;21755;43.608;1.236;2024-03-02T11:45:28;10.40;1.00
34768;DHT22;21755;43.608;1.236;2024-03-02T11:47:55;10.40;1.00
34768;DHT22;21755;43.608;1.236;2024-03-02T11:50:34;10.50;1.00
34768;DHT22;21755;43.608;1.236;2024-03-02T11:53:01;10.50;1.00
34768;DHT22;21755;43.608;1.236;2024-03-02T11:55:27;10.50;1.00
34768;DHT22;21755;43.608;1.236;2024-03-02T11:57:54;10.50;1.00
34768;DHT22;21755;43.608;1.236;2024-03-02T12:00:20;10.50;1.00
34768;DHT22;21755;43.608;1.236;2024-03-02T12:02:48;10.60;1.00
34768;DHT22;21755;43.608;1.236;2024-03-02T12:05:25;10.60;1.00
34768;DHT22;21755;43.608;1.236;2024-03-02T12:07:56;10.60;1.00
34768;DHT22;21755;43.608;1.236;2024-03-02T12:10:23;10.60;1.00
34768;DHT22;21755;43.608;1.236;2024-03-02T12:13:02;10.60;1.00
34768;DHT22;21755;43.608;1.236;2024-03-02T12:15:30;10.60;1.00
34768;DHT22;21755;43.608;1.236;2024-03-02T12:17:58;10.60;1.00
34768;DHT22;21755;43.608;1.236;2024-03-02T12:20:25;10.70;1.00
34768;DHT22;21755;43.608;1.236;2024-03-02T12:22:55;10.70;1.00
34768;DHT22;21755;43.608;1.236;2024-03-02T12:25:22;10.70;1.00
34768;DHT22;21755;43.608;1.236;2024-03-02T12:27:53;10.70;1.00
34768;DHT22;21755;43.608;1.236;2024-03-02T12:30:20;10.70;1.00
34768;DHT22;21755;43.608;1.236;2024-03-02T12:32:47;10.80;1.00
34768;DHT22;21755;43.608;1.236;2024-03-02T12:35:13;10.80;1.00
34768;DHT22;21755;43.608;1.236;2024-03-02T12:37:46;10.80;1.00
34768;DHT22;21755;43.608;1.236;2024-03-02T12:40:13;10.80;1.00
34768;DHT22;21755;43.608;1.236;2024-03-02T12:42:40;10.80;1.00
34768;DHT22;21755;43.608;1.236;2024-03-02T12:45:08;10.90;1.00
34768;DHT22;21755;43.608;1.236;2024-03-02T12:47:34;10.90;1.00
34768;DHT22;21755;43.608;1.236;2024-03-02T12:50:01;10.90;1.00
34768;DHT22;21755;43.608;1.236;2024-03-02T12:52:27;10.90;1.00
34768;DHT22;21755;43.608;1.236;2024-03-02T12:54:54;10.90;1.00
34768;DHT22;21755;43.608;1.236;2024-03-02T12:57:26;11.00;1.00
34768;DHT22;21755;43.608;1.236;2024-03-02T13:00:09;11.00;1.00
34768;DHT22;21755;43.608;1.236;2024-03-02T13:02:36;11.00;1.00
34768;DHT22;21755;43.608;1.236;2024-03-02T13:05:02;11.00;1.00
34768;DHT22;21755;43.608;1.236;2024-03-02T13:07:29;11.00;1.00
34768;DHT22;21755;43.608;1.236;2024-03-02T13:09:56;11.10;1.00
34768;DHT22;21755;43.608;1.236;2024-03-02T13:12:23;11.10;1.00
34768;DHT22;21755;43.608;1.236;2024-03-02T13:14:53;11.10;1.00
34768;DHT22;21755;43.608;1.236;2024-03-02T13:17:19;11.10;1.00
34768;DHT22;21755;43.608;1.236;2024-03-02T13:19:59;11.10;1.00
34768;DHT22;21755;43.608;1.236;2024-03-02T13:22:26;11.20;1.00
34768;DHT22;21755;43.608;1.236;2024-03-02T13:24:52;11.20;1.00
34768;DHT22;21755;43.608;1.236;2024-03-02T13:27:20;11.20;1.00
34768;DHT22;21755;43.608;1.236;2024-03-02T13:29:47;11.20;1.00
34768;DHT22;21755;43.608;1.236;2024-03-02T13:32:14;11.20;1.00
34768;DHT22;21755;43.608;1.236;2024-03-02T13:34:40;11.30;1.00
34768;DHT22;21755;43.608;1.236;2024-03-02T13:37:06;11.30;1.00
34768;DHT22;21755;43.608;1.236;2024-03-02T13:39:32;11.30;1.00
34768;DHT22;21755;43.608;1.236;2024-03-02T13:42:00;11.30;1.00
34768;DHT22;21755;43.608;1.236;2024-03-02T13:44:32;11.40;1.00
34768;DHT22;21755;43.608;1.236;2024-03-02T13:47:01;11.40;1.00
34768;DHT22;21755;43.608;1.236;2024-03-02T13:49:27;11.40;1.00
34768;DHT22;21755;43.608;1.236;2024-03-02T13:52:06;11.40;1.00
34768;DHT22;21755;43.608;1.236;2024-03-02T13:54:47;11.40;1.00
34768;DHT22;21755;43.608;1.236;2024-03-02T13:57:13;11.40;1.00
34768;DHT22;21755;43.608;1.236;2024-03-02T13:59:40;11.50;1.00
34768;DHT22;21755;43.608;1.236;2024-03-02T14:02:06;11.50;1.00
34768;DHT22;21755;43.608;1.236;2024-03-02T14:04:34;11.50;1.00
34768;DHT22;21755;43.608;1.236;2024-03-02T14:07:01;11.50;1.00
34768;DHT22;21755;43.608;1.236;2024-03-02T14:09:27;11.50;1.00
34768;DHT22;21755;43.608;1.236;2024-03-02T14:11:54;11.50;1.00
34768;DHT22;21755;43.608;1.236;2024-03-02T14:14:20;11.50;1.00
34768;DHT22;21755;43.608;1.236;2024-03-02T14:16:46;11.50;1.00
34768;DHT22;21755;43.608;1.236;2024-03-02T14:19:12;11.60;1.00
34768;DHT22;21755;43.608;1.236;2024-03-02T14:21:41;11.60;1.00
34768;DHT22;21755;43.608;1.236;2024-03-02T14:24:07;11.60;1.00
34768;DHT22;21755;43.608;1.236;2024-03-02T14:26:33;11.60;1.00
34768;DHT22;21755;43.608;1.236;2024-03-02T14:29:00;11.60;1.00
34768;DHT22;21755;43.608;1.236;2024-03-02T14:31:29;11.70;1.00
34768;DHT22;21755;43.608;1.236;2024-03-02T14:33:55;11.70;1.00
34768;DHT22;21755;43.608;1.236;2024-03-02T14:36:21;11.70;1.00
34768;DHT22;21755;43.608;1.236;2024-03-02T14:38:47;11.70;1.00
34768;DHT22;21755;43.608;1.236;2024-03-02T14:41:13;11.70;1.00
34768;DHT22;21755;43.608;1.236;2024-03-02T14:43:39;11.70;1.00
34768;DHT22;21755;43.608;1.236;2024-03-02T14:46:06;11.80;1.00
34768;DHT22;21755;43.608;1.236;2024-03-02T14:48:38;11.70;1.00
34768;DHT22;21755;43.608;1.236;2024-03-02T14:51:04;11.80;1.00
34768;DHT22;21755;43.608;1.236;2024-03-02T14:53:30;11.80;1.00
34768;DHT22;21755;43.608;1.236;2024-03-02T14:55:57;11.80;1.00
34768;DHT22;21755;43.608;1.236;2024-03-02T14:58:23;11.80;1.00
34768;DHT22;21755;43.608;1.236;2024-03-02T15:00:49;11.80;1.00
34768;DHT22;21755;43.608;1.236;2024-03-02T15:03:16;11.80;1.00
34768;DHT22;21755;43.608;1.236;2024-03-02T15:05:42;11.80;1.00
34768;DHT22;21755;43.608;1.236;2024-03-02T15:08:08;11.80;1.00
34768;DHT22;21755;43.608;1.236;2024-03-02T15:10:34;11.80;1.00
34768;DHT22;21755;43.608;1.236;2024-03-02T15:13:00;11.80;1.00
34768;DHT22;21755;43.608;1.236;2024-03-02T15:15:26;11.80;1.00
34768;DHT22;21755;43.608;1.236;2024-03-02T15:17:52;11.80;1.00
34768;DHT22;21755;43.608;1.236;2024-03-02T15:20:18;11.80;1.00
34768;DHT22;21755;43.608;1.236;2024-03-02T15:22:46;11.80;1.00
34768;DHT22;21755;43.608;1.236;2024-03-02T15:25:12;11.90;1.00
34768;DHT22;21755;43.608;1.236;2024-03-02T15:27:38;11.90;1.00
34768;DHT22;21755;43.608;1.236;2024-03-02T15:30:06;11.90;1.00
34768;DHT22;21755;43.608;1.236;2024-03-02T15:32:32;11.80;1.00
34768;DHT22;21755;43.608;1.236;2024-03-02T15:34:59;11.80;1.00
34768;DHT22;21755;43.608;1.236;2024-03-02T15:37:25;11.90;1.00
34768;DHT22;21755;43.608;1.236;2024-03-02T15:39:51;11.90;1.00
34768;DHT22;21755;43.608;1.236;2024-03-02T15:42:17;11.90;1.00
34768;DHT22;21755;43.608;1.236;2024-03-02T15:44:43;11.90;1.00
34768;DHT22;21755;43.608;1.236;2024-03-02T15:47:09;11.90;1.00
34768;DHT22;21755;43.608;1.236;2024-03-02T15:49:35;11.90;1.00
34768;DHT22;21755;43.608;1.236;2024-03-02T15:52:01;11.90;1.00
34768;DHT22;21755;43.608;1.236;2024-03-02T15:54:28;11.90;1.00
34768;DHT22;21755;43.608;1.236;2024-03-02T15:56:54;11.90;1.00
34768;DHT22;21755;43.608;1.236;2024-03-02T15:59:20;11.90;1.00
34768;DHT22;21755;43.608;1.236;2024-03-02T16:01:46;11.90;1.00
34768;DHT22;21755;43.608;1.236;2024-03-02T16:04:12;11.90;1.00